createdAt,value
2023-05-03T00:04:10.060Z,4.90
2023-05-03T00:09:11.703Z,5.07
2023-05-03T00:14:12.999Z,4.80
2023-05-03T00:19:24.241Z,5.43
2023-05-03T00:24:29.603Z,5.90
2023-05-03T00:29:30.926Z,5.03
2023-05-03T00:34:32.221Z,5.68
2023-05-03T00:39:33.557Z,4.78
2023-05-03T00:44:34.890Z,6.03
2023-05-03T00:49:36.747Z,5.43
2023-05-03T00:54:38.565Z,5.20
2023-05-03T00:59:40.235Z,5.10
2023-05-03T01:04:43.416Z,5.05
2023-05-03T01:10:04.752Z,5.10
2023-05-03T01:15:17.662Z,5.90
2023-05-03T01:20:24.855Z,4.75
2023-05-03T01:25:27.280Z,4.93
2023-05-03T01:30:31.908Z,5.38
2023-05-03T01:36:00.038Z,4.95
2023-05-03T01:41:06.248Z,5.43
2023-05-03T01:46:08.274Z,5.20
2023-05-03T01:51:09.750Z,4.82
2023-05-03T01:56:11.740Z,5.15
2023-05-03T02:01:13.178Z,5.13
2023-05-03T02:06:14.529Z,5.38
2023-05-03T02:11:15.853Z,5.10
2023-05-03T02:16:20.156Z,5.80
2023-05-03T02:21:21.535Z,5.20
2023-05-03T02:26:22.818Z,6.00
2023-05-03T02:31:24.887Z,6.35
2023-05-03T02:36:26.314Z,6.18
2023-05-03T02:41:28.603Z,6.18
2023-05-03T02:46:29.986Z,5.97
2023-05-03T02:51:32.404Z,5.20
2023-05-03T02:56:33.879Z,5.15
2023-05-03T03:01:35.284Z,5.88
2023-05-03T03:06:36.651Z,5.40
2023-05-03T03:11:38.237Z,5.47
2023-05-03T03:16:39.590Z,5.75
2023-05-03T03:21:41.652Z,5.40
2023-05-03T03:26:42.943Z,5.57
2023-05-03T03:31:44.854Z,5.63
2023-05-03T03:36:46.212Z,5.72
2023-05-03T03:41:47.686Z,5.47
2023-05-03T03:46:51.004Z,6.10
2023-05-03T03:51:52.425Z,5.65
2023-05-03T03:56:53.724Z,5.60
2023-05-03T04:01:55.024Z,5.80
2023-05-03T04:06:56.362Z,6.13
2023-05-03T04:11:57.689Z,7.68
2023-05-03T04:16:59.087Z,6.15
2023-05-03T04:22:00.426Z,5.97
2023-05-03T04:27:04.492Z,5.32
2023-05-03T04:32:07.711Z,6.00
2023-05-03T04:37:09.671Z,5.18
2023-05-03T04:42:12.225Z,6.18
2023-05-03T04:47:13.524Z,5.30
2023-05-03T04:52:14.876Z,5.65
2023-05-03T04:57:16.438Z,5.65
2023-05-03T05:02:17.870Z,6.15
2023-05-03T05:07:19.270Z,6.03
2023-05-03T05:12:21.449Z,5.80
2023-05-03T05:17:23.927Z,6.50
2023-05-03T05:22:25.362Z,5.38
2023-05-03T05:27:27.193Z,6.47
2023-05-03T05:32:28.688Z,6.90
2023-05-03T05:37:30.180Z,5.47
2023-05-03T05:42:32.102Z,5.95
2023-05-03T05:47:33.529Z,6.15
2023-05-03T05:52:35.013Z,5.28
2023-05-03T05:57:36.318Z,5.07
2023-05-03T06:02:37.854Z,5.80
2023-05-03T06:07:39.234Z,5.03
2023-05-03T06:12:40.820Z,5.45
2023-05-03T06:17:42.243Z,4.03
2023-05-03T06:22:43.818Z,4.80
2023-05-03T06:27:45.103Z,4.18
2023-05-03T06:32:47.748Z,3.90
2023-05-03T06:37:49.521Z,4.05
2023-05-03T06:42:50.961Z,4.68
2023-05-03T06:47:52.323Z,4.40
2023-05-03T06:52:54.318Z,4.45
2023-05-03T06:57:55.647Z,4.18
2023-05-03T07:02:57.158Z,5.10
2023-05-03T07:07:58.504Z,4.40
2023-05-03T07:12:59.836Z,4.40
2023-05-03T07:18:01.474Z,4.72
2023-05-03T07:23:02.940Z,4.30
2023-05-03T07:28:04.422Z,3.92
2023-05-03T07:33:05.914Z,4.32
2023-05-03T07:38:07.321Z,4.18
2023-05-03T07:43:12.636Z,3.88
2023-05-03T07:48:13.950Z,4.25
2023-05-03T07:53:15.360Z,4.53
2023-05-03T07:58:17.498Z,4.82
2023-05-03T08:03:19.874Z,4.35
2023-05-03T08:08:21.412Z,4.20
2023-05-03T08:13:23.309Z,3.97
2023-05-03T08:18:24.842Z,4.70
2023-05-03T08:23:26.375Z,3.55
2023-05-03T08:28:28.150Z,4.00
2023-05-03T08:33:29.741Z,4.35
2023-05-03T08:38:31.377Z,5.05
2023-05-03T08:43:40.066Z,3.90
2023-05-03T08:48:43.066Z,4.28
2023-05-03T08:53:44.961Z,3.60
2023-05-03T08:58:46.379Z,4.30
2023-05-03T09:03:51.874Z,3.95
2023-05-03T09:08:54.691Z,4.10
2023-05-03T09:14:17.378Z,4.15
2023-05-03T09:19:18.678Z,3.97
2023-05-03T09:24:21.860Z,3.30
2023-05-03T09:29:31.661Z,3.77
2023-05-03T09:34:33.594Z,3.75
2023-05-03T09:39:37.110Z,4.55
2023-05-03T09:44:48.929Z,4.20
2023-05-03T09:49:50.538Z,3.42
2023-05-03T09:54:53.797Z,3.83
2023-05-03T09:59:55.850Z,3.35
2023-05-03T10:04:58.943Z,3.42
2023-05-03T10:10:00.536Z,4.00
2023-05-03T10:15:07.337Z,3.30
2023-05-03T10:20:14.902Z,3.53
2023-05-03T10:25:16.643Z,3.50
2023-05-03T10:30:31.348Z,3.17
2023-05-03T10:35:32.666Z,3.08
2023-05-03T10:40:43.550Z,3.20
2023-05-03T10:45:46.250Z,3.10
2023-05-03T10:50:49.252Z,2.88
2023-05-03T10:56:08.796Z,3.20
2023-05-03T11:01:12.437Z,3.35
2023-05-03T11:06:36.609Z,3.30
2023-05-03T11:11:40.256Z,2.58
2023-05-03T11:16:48.030Z,2.30
2023-05-03T11:21:50.009Z,2.38
2023-05-03T11:31:53.399Z,2.17
2023-05-03T11:36:55.248Z,2.53
2023-05-03T11:47:06.219Z,2.00
2023-05-03T11:52:07.736Z,1.95
2023-05-03T11:57:13.043Z,2.60
2023-05-03T12:02:16.678Z,2.60
2023-05-03T12:07:21.035Z,2.20
2023-05-03T12:12:29.609Z,2.20
2023-05-03T12:17:37.391Z,2.45
2023-05-03T12:22:39.583Z,2.22
2023-05-03T12:27:41.407Z,2.38
2023-05-03T12:32:44.373Z,2.67
2023-05-03T12:37:49.463Z,2.05
2023-05-03T12:42:51.116Z,1.95
2023-05-03T12:47:53.309Z,2.17
2023-05-03T12:52:54.911Z,2.10
2023-05-03T12:58:22.886Z,2.13
2023-05-03T13:03:21.114Z,2.22
2023-05-03T13:08:33.393Z,2.42
2023-05-03T13:13:35.488Z,2.80
2023-05-03T13:18:37.084Z,1.90
2023-05-03T13:23:38.375Z,1.73
2023-05-03T13:28:42.794Z,1.80
2023-05-03T13:33:44.673Z,2.47
2023-05-03T13:38:47.145Z,1.77
2023-05-03T13:43:48.471Z,2.53
2023-05-03T13:48:49.917Z,1.88
2023-05-03T13:53:51.312Z,1.77
2023-05-03T13:58:53.530Z,2.28
2023-05-03T14:03:55.364Z,2.13
2023-05-03T14:08:58.111Z,1.75
2023-05-03T14:13:59.703Z,2.13
2023-05-03T14:19:01.638Z,1.63
2023-05-03T14:24:03.036Z,2.00
2023-05-03T14:29:05.607Z,1.25
2023-05-03T14:34:07.052Z,1.93
2023-05-03T14:39:08.313Z,1.65
2023-05-03T14:44:09.630Z,2.08
2023-05-03T14:49:10.944Z,1.85
2023-05-03T14:54:12.428Z,1.52
2023-05-03T14:59:13.785Z,2.08
2023-05-03T15:04:15.151Z,2.08
2023-05-03T15:09:17.629Z,1.95
2023-05-03T15:14:19.376Z,1.50
2023-05-03T15:19:21.409Z,2.25
2023-05-03T15:24:22.869Z,2.10
2023-05-03T15:29:24.316Z,2.90
2023-05-03T15:34:26.038Z,1.77
2023-05-03T15:39:27.384Z,1.55
2023-05-03T15:44:28.700Z,2.53
2023-05-03T15:49:29.940Z,2.38
2023-05-03T15:54:31.256Z,1.48
2023-05-03T15:59:32.642Z,1.45
2023-05-03T16:04:36.991Z,2.60
2023-05-03T16:09:38.323Z,1.73
2023-05-03T16:14:39.837Z,1.60
2023-05-03T16:19:41.127Z,1.80
2023-05-03T16:24:42.380Z,1.60
2023-05-03T16:29:43.773Z,2.00
2023-05-03T16:34:45.126Z,2.10
2023-05-03T16:39:46.429Z,1.23
2023-05-03T16:44:48.468Z,3.03
2023-05-03T16:49:49.800Z,1.25
2023-05-03T16:54:51.058Z,2.22
2023-05-03T16:59:52.458Z,1.20
2023-05-03T17:04:53.828Z,1.10
2023-05-03T17:09:55.500Z,1.55
2023-05-03T17:14:56.852Z,1.88
2023-05-03T17:19:58.202Z,1.33
2023-05-03T17:24:59.585Z,1.55
2023-05-03T17:30:00.900Z,1.17
2023-05-03T17:35:02.546Z,1.23
2023-05-03T17:40:06.410Z,0.98
2023-05-03T17:45:09.659Z,1.25
2023-05-03T17:50:11.841Z,1.10
2023-05-03T18:00:19.030Z,1.50
2023-05-03T18:05:20.606Z,1.73
2023-05-03T18:10:22.466Z,1.73
2023-05-03T18:15:24.505Z,1.30
2023-05-03T18:20:25.839Z,1.20
2023-05-03T18:25:28.196Z,1.27
2023-05-03T18:30:29.634Z,1.30
2023-05-03T18:35:30.894Z,1.10
2023-05-03T18:40:32.136Z,2.00
2023-05-03T18:45:39.891Z,1.23
2023-05-03T18:50:44.232Z,1.23
2023-05-03T18:55:45.548Z,1.30
2023-05-03T19:00:46.962Z,1.38
2023-05-03T19:05:48.332Z,1.65
2023-05-03T19:10:49.653Z,1.75
2023-05-03T19:15:51.277Z,1.67
2023-05-03T19:20:52.689Z,1.77
2023-05-03T19:25:54.214Z,1.30
2023-05-03T19:30:55.721Z,1.58
2023-05-03T19:35:57.516Z,1.27
2023-05-03T19:40:59.691Z,1.40
2023-05-03T19:46:01.784Z,1.40
2023-05-03T19:51:05.122Z,1.63
2023-05-03T19:56:09.315Z,1.90
2023-05-03T20:01:10.729Z,1.83
2023-05-03T20:06:12.015Z,1.60
2023-05-03T20:11:13.446Z,2.60
2023-05-03T20:16:15.106Z,1.30
2023-05-03T20:21:16.515Z,1.50
2023-05-03T20:26:18.986Z,1.60
2023-05-03T20:31:20.416Z,2.13
2023-05-03T20:36:22.158Z,1.73
2023-05-03T20:41:23.897Z,1.42
2023-05-03T20:46:26.329Z,1.65
2023-05-03T20:51:27.649Z,1.35
2023-05-03T20:56:28.966Z,1.40
2023-05-03T21:01:30.922Z,1.75
2023-05-03T21:06:35.302Z,1.88
2023-05-03T21:11:36.683Z,2.20
2023-05-03T21:16:38.783Z,1.88
2023-05-03T21:21:42.002Z,1.77
2023-05-03T21:26:44.891Z,1.60
2023-05-03T21:31:46.488Z,1.90
2023-05-03T21:36:47.798Z,2.10
2023-05-03T21:41:49.121Z,1.80
2023-05-03T21:46:51.048Z,1.63
2023-05-03T21:51:52.697Z,1.85
2023-05-03T21:56:54.006Z,1.63
2023-05-03T22:01:55.342Z,2.08
2023-05-03T22:06:57.284Z,1.40
2023-05-03T22:11:59.438Z,2.10
2023-05-03T22:17:01.942Z,1.95
2023-05-03T22:22:03.451Z,1.90
2023-05-03T22:27:04.726Z,2.35
2023-05-03T22:32:07.211Z,1.92
2023-05-03T22:37:08.611Z,1.95
2023-05-03T22:42:09.874Z,1.80
2023-05-03T22:47:11.272Z,2.10
2023-05-03T22:52:12.734Z,1.92
2023-05-03T22:57:14.071Z,1.90
2023-05-03T23:02:15.355Z,2.20
2023-05-03T23:07:16.657Z,1.95
2023-05-03T23:12:18.550Z,2.47
2023-05-03T23:17:20.311Z,2.40
2023-05-03T23:22:21.632Z,1.90
2023-05-03T23:27:23.018Z,1.80
2023-05-03T23:32:24.838Z,1.85
2023-05-03T23:37:26.998Z,1.52
2023-05-03T23:42:28.327Z,1.70
2023-05-03T23:47:29.620Z,1.95
2023-05-03T23:52:31.248Z,1.90
2023-05-03T23:57:32.595Z,2.08
